createdAt,value
2022-08-20T00:02:14.650Z,22.91
2022-08-20T00:04:44.258Z,22.92
2022-08-20T00:07:13.274Z,22.79
2022-08-20T00:09:41.698Z,22.82
2022-08-20T00:12:11.324Z,22.83
2022-08-20T00:14:39.961Z,22.85
2022-08-20T00:17:08.354Z,22.88
2022-08-20T00:19:36.578Z,22.58
2022-08-20T00:22:06.339Z,22.86
2022-08-20T00:24:34.944Z,22.78
2022-08-20T00:27:03.449Z,23.06
2022-08-20T00:29:31.674Z,22.93
2022-08-20T00:31:59.899Z,22.84
2022-08-20T00:34:29.388Z,23.26
2022-08-20T00:36:57.792Z,23.22
2022-08-20T00:39:27.474Z,23.12
2022-08-20T00:41:55.609Z,23.32
2022-08-20T00:44:24.538Z,23.19
2022-08-20T00:46:53.772Z,23.23
2022-08-20T00:49:24.998Z,23.11
2022-08-20T00:51:57.065Z,23.45
2022-08-20T00:54:28.757Z,23.46
2022-08-20T00:57:01.547Z,23.40
2022-08-20T00:59:31.729Z,23.22
2022-08-20T01:02:01.868Z,23.33
2022-08-20T01:04:33.445Z,22.95
2022-08-20T01:07:02.147Z,23.08
2022-08-20T01:09:49.553Z,23.01
2022-08-20T01:12:20.068Z,22.91
2022-08-20T01:14:48.707Z,22.72
2022-08-20T01:17:20.917Z,22.74
2022-08-20T01:19:51.550Z,22.90
2022-08-20T01:22:42.969Z,22.96
2022-08-20T01:25:18.549Z,22.77
2022-08-20T01:27:48.183Z,22.98
2022-08-20T01:30:29.198Z,23.04
2022-08-20T01:32:57.300Z,22.95
2022-08-20T01:35:26.066Z,22.99
2022-08-20T01:37:54.261Z,22.92
2022-08-20T01:40:30.838Z,22.87
2022-08-20T01:43:00.414Z,22.88
2022-08-20T01:45:30.360Z,23.01
2022-08-20T01:47:59.755Z,22.92
2022-08-20T01:50:30.362Z,22.63
2022-08-20T01:53:13.051Z,22.64
2022-08-20T01:55:41.332Z,22.70
2022-08-20T01:58:11.051Z,22.62
2022-08-20T02:00:39.377Z,22.84
2022-08-20T02:03:07.909Z,22.88
2022-08-20T02:05:36.272Z,22.79
2022-08-20T02:08:05.407Z,22.65
2022-08-20T02:10:34.478Z,22.87
2022-08-20T02:13:02.878Z,22.88
2022-08-20T02:15:35.163Z,23.05
2022-08-20T02:18:10.927Z,23.01
2022-08-20T02:20:39.987Z,22.90
2022-08-20T02:23:08.639Z,22.79
2022-08-20T02:25:38.821Z,22.82
2022-08-20T02:28:09.303Z,22.91
2022-08-20T02:30:42.112Z,22.65
2022-08-20T02:33:12.173Z,22.47
2022-08-20T02:35:41.226Z,22.47
2022-08-20T02:38:09.344Z,22.62
2022-08-20T02:40:37.687Z,22.66
2022-08-20T02:43:06.135Z,22.54
2022-08-20T02:45:37.572Z,22.43
2022-08-20T02:48:07.313Z,22.33
2022-08-20T02:50:35.480Z,22.50
2022-08-20T02:53:03.919Z,22.24
2022-08-20T02:55:32.013Z,22.29
2022-08-20T02:58:01.306Z,22.46
2022-08-20T03:00:37.783Z,22.26
2022-08-20T03:03:08.270Z,22.32
2022-08-20T03:05:36.455Z,22.35
2022-08-20T03:08:09.139Z,22.40
2022-08-20T03:10:38.654Z,22.37
2022-08-20T03:13:11.321Z,22.34
2022-08-20T03:15:40.775Z,22.33
2022-08-20T03:18:10.835Z,22.52
2022-08-20T03:20:39.279Z,22.48
2022-08-20T03:23:08.353Z,22.28
2022-08-20T03:25:36.576Z,22.45
2022-08-20T03:28:05.747Z,22.34
2022-08-20T03:30:34.092Z,22.37
2022-08-20T03:33:02.190Z,22.38
2022-08-20T03:35:33.416Z,22.31
2022-08-20T03:38:01.558Z,22.36
2022-08-20T03:40:32.159Z,22.50
2022-08-20T03:43:00.720Z,22.58
2022-08-20T03:45:30.583Z,22.28
2022-08-20T03:47:58.880Z,22.56
2022-08-20T03:50:30.228Z,22.42
2022-08-20T03:53:01.408Z,22.41
2022-08-20T03:55:31.022Z,22.61
2022-08-20T03:58:02.792Z,22.80
2022-08-20T04:00:33.646Z,22.70
2022-08-20T04:03:02.076Z,22.90
2022-08-20T04:05:31.500Z,22.93
2022-08-20T04:08:03.080Z,22.86
2022-08-20T04:10:31.983Z,22.99
2022-08-20T04:13:00.313Z,22.78
2022-08-20T04:15:30.022Z,22.65
2022-08-20T04:17:59.932Z,22.79
2022-08-20T04:20:28.370Z,22.83
2022-08-20T04:22:59.039Z,22.84
2022-08-20T04:25:30.084Z,22.92
2022-08-20T04:28:06.505Z,22.95
2022-08-20T04:30:34.942Z,22.92
2022-08-20T04:33:03.212Z,22.84
2022-08-20T04:35:32.617Z,22.81
2022-08-20T04:38:01.716Z,22.82
2022-08-20T04:40:45.679Z,22.81
2022-08-20T04:43:14.095Z,22.72
2022-08-20T04:45:43.715Z,22.73
2022-08-20T04:48:15.137Z,22.41
2022-08-20T04:50:46.828Z,22.57
2022-08-20T04:53:20.666Z,22.38
2022-08-20T04:55:53.621Z,22.81
2022-08-20T04:58:24.749Z,22.40
2022-08-20T05:01:01.202Z,22.54
2022-08-20T05:03:29.958Z,22.45
2022-08-20T05:05:59.044Z,22.40
2022-08-20T05:08:27.795Z,22.59
2022-08-20T05:11:06.749Z,22.60
2022-08-20T05:13:46.172Z,22.58
2022-08-20T05:16:16.264Z,22.41
2022-08-20T05:18:45.710Z,22.51
2022-08-20T05:21:21.053Z,22.76
2022-08-20T05:23:49.702Z,22.61
2022-08-20T05:26:20.372Z,22.65
2022-08-20T05:28:57.977Z,22.52
2022-08-20T05:31:31.224Z,22.59
2022-08-20T05:34:01.193Z,22.53
2022-08-20T05:36:29.513Z,22.39
2022-08-20T05:38:57.638Z,22.57
2022-08-20T05:41:30.173Z,22.27
2022-08-20T05:44:01.449Z,22.58
2022-08-20T05:46:31.758Z,22.73
2022-08-20T05:49:01.799Z,22.89
2022-08-20T05:51:30.859Z,22.69
2022-08-20T05:53:59.501Z,22.58
2022-08-20T05:56:31.274Z,22.55
2022-08-20T05:59:02.654Z,22.80
2022-08-20T06:01:31.108Z,22.66
2022-08-20T06:04:16.540Z,22.70
2022-08-20T06:06:47.161Z,22.61
2022-08-20T06:09:28.546Z,22.59
2022-08-20T06:12:02.788Z,22.34
2022-08-20T06:14:34.235Z,22.21
2022-08-20T06:17:06.764Z,22.15
2022-08-20T06:19:36.468Z,21.98
2022-08-20T06:22:17.792Z,22.21
2022-08-20T06:24:51.357Z,22.41
2022-08-20T06:27:21.372Z,22.20
2022-08-20T06:29:50.293Z,22.55
2022-08-20T06:32:19.943Z,22.61
2022-08-20T06:35:02.164Z,22.78
2022-08-20T06:37:32.332Z,22.56
2022-08-20T06:40:03.599Z,22.62
2022-08-20T06:42:33.463Z,22.47
2022-08-20T06:45:04.938Z,22.71
2022-08-20T06:47:33.733Z,22.58
2022-08-20T06:50:01.876Z,22.27
2022-08-20T06:52:51.561Z,22.26
2022-08-20T06:55:18.900Z,22.50
2022-08-20T06:57:50.286Z,22.37
2022-08-20T07:00:21.105Z,22.36
2022-08-20T07:02:51.395Z,22.26
2022-08-20T07:05:25.158Z,22.33
2022-08-20T07:07:56.448Z,22.53
2022-08-20T07:10:34.143Z,22.33
2022-08-20T07:13:11.799Z,22.56
2022-08-20T07:15:47.941Z,22.61
2022-08-20T07:18:28.237Z,22.48
2022-08-20T07:21:00.126Z,22.75
2022-08-20T07:23:31.500Z,22.91
2022-08-20T07:26:06.297Z,22.91
2022-08-20T07:28:36.767Z,22.91
2022-08-20T07:31:23.790Z,22.98
2022-08-20T07:33:53.419Z,22.80
2022-08-20T07:36:22.546Z,22.97
2022-08-20T07:38:52.732Z,23.03
2022-08-20T07:41:24.233Z,23.05
2022-08-20T07:43:54.770Z,22.87
2022-08-20T07:46:23.418Z,23.07
2022-08-20T07:48:57.485Z,22.75
2022-08-20T07:51:26.608Z,22.91
2022-08-20T07:53:58.293Z,23.14
2022-08-20T07:56:30.117Z,23.06
2022-08-20T07:59:01.577Z,23.08
2022-08-20T08:01:32.315Z,22.99
2022-08-20T08:04:01.195Z,23.29
2022-08-20T08:06:32.615Z,23.57
2022-08-20T08:09:04.812Z,23.19
2022-08-20T08:11:34.856Z,23.11
2022-08-20T08:14:07.020Z,23.40
2022-08-20T08:16:35.891Z,23.48
2022-08-20T08:19:06.679Z,23.62
2022-08-20T08:21:34.898Z,23.70
2022-08-20T08:24:03.295Z,23.99
2022-08-20T08:26:31.679Z,24.02
2022-08-20T08:28:59.893Z,24.05
2022-08-20T08:31:29.493Z,24.26
2022-08-20T08:33:57.769Z,24.08
2022-08-20T08:36:26.894Z,24.22
2022-08-20T08:38:56.696Z,24.23
2022-08-20T08:41:29.560Z,24.43
2022-08-20T08:44:03.503Z,24.26
2022-08-20T08:46:38.719Z,24.50
2022-08-20T08:49:06.914Z,24.60
2022-08-20T08:51:39.785Z,24.44
2022-08-20T08:54:09.065Z,24.22
2022-08-20T08:56:37.574Z,24.08
2022-08-20T08:59:07.784Z,24.11
2022-08-20T09:01:54.449Z,24.36
2022-08-20T09:04:31.755Z,24.55
2022-08-20T09:07:00.790Z,24.37
2022-08-20T09:09:30.605Z,24.35
2022-08-20T09:12:04.915Z,24.16
2022-08-20T09:14:33.186Z,24.09
2022-08-20T09:17:02.994Z,24.12
2022-08-20T09:19:31.183Z,24.24
2022-08-20T09:21:59.299Z,24.38
2022-08-20T09:24:28.902Z,24.57
2022-08-20T09:26:56.979Z,24.25
2022-08-20T09:29:25.103Z,24.47
2022-08-20T09:32:06.561Z,24.18
2022-08-20T09:34:37.159Z,24.39
2022-08-20T09:37:05.641Z,24.41
2022-08-20T09:39:34.002Z,24.36
2022-08-20T09:42:08.682Z,24.39
2022-08-20T09:44:37.290Z,24.42
2022-08-20T09:47:07.413Z,24.56
2022-08-20T09:49:37.349Z,24.73
2022-08-20T09:52:08.704Z,24.51
2022-08-20T09:54:37.935Z,24.53
2022-08-20T09:57:07.845Z,24.45
2022-08-20T09:59:37.598Z,24.58
2022-08-20T10:02:07.180Z,25.08
2022-08-20T10:07:03.333Z,24.91
2022-08-20T10:09:31.521Z,24.98
2022-08-20T10:11:59.754Z,25.07
2022-08-20T10:14:27.935Z,24.83
2022-08-20T10:16:59.895Z,24.94
2022-08-20T10:19:31.334Z,25.05
2022-08-20T10:21:59.588Z,25.36
2022-08-20T10:24:28.536Z,25.76
2022-08-20T10:26:57.696Z,26.06
2022-08-20T10:29:25.971Z,25.63
2022-08-20T10:31:55.034Z,25.82
2022-08-20T10:34:23.226Z,25.34
2022-08-20T10:36:53.120Z,25.33
2022-08-20T10:39:21.540Z,25.56
2022-08-20T10:41:50.739Z,25.66
2022-08-20T10:44:18.893Z,25.77
2022-08-20T10:46:47.119Z,25.52
2022-08-20T10:49:15.312Z,25.97
2022-08-20T10:51:43.499Z,25.44
2022-08-20T10:54:12.998Z,25.75
2022-08-20T10:56:41.345Z,25.91
2022-08-20T10:59:09.606Z,25.59
2022-08-20T11:01:37.867Z,25.55
2022-08-20T11:04:06.227Z,25.65
2022-08-20T11:06:34.448Z,25.60
2022-08-20T11:09:02.643Z,25.64
2022-08-20T11:11:32.184Z,25.68
2022-08-20T11:14:00.341Z,25.68
2022-08-20T11:16:28.617Z,25.88
2022-08-20T11:18:56.812Z,25.65
2022-08-20T11:21:24.966Z,25.43
2022-08-20T11:23:53.175Z,25.46
2022-08-20T11:26:24.118Z,25.60
2022-08-20T11:28:53.651Z,25.24
2022-08-20T11:31:21.720Z,25.13
2022-08-20T11:33:49.892Z,25.06
2022-08-20T11:36:18.019Z,25.01
2022-08-20T11:38:46.100Z,24.76
2022-08-20T11:41:14.546Z,24.53
2022-08-20T11:43:54.963Z,24.58
2022-08-20T11:46:32.978Z,24.58
2022-08-20T11:49:01.440Z,24.33
2022-08-20T11:51:29.726Z,24.03
2022-08-20T11:54:03.582Z,23.99
2022-08-20T11:56:32.323Z,23.82
2022-08-20T11:59:00.472Z,24.12
2022-08-20T12:01:28.695Z,24.14
2022-08-20T12:03:58.214Z,24.01
2022-08-20T12:06:26.429Z,24.15
2022-08-20T12:08:54.632Z,24.08
2022-08-20T12:11:22.760Z,23.91
2022-08-20T12:13:50.917Z,23.90
2022-08-20T12:16:19.718Z,23.79
2022-08-20T12:18:48.543Z,24.06
2022-08-20T12:21:18.256Z,23.82
2022-08-20T12:23:46.908Z,23.78
2022-08-20T12:26:16.766Z,23.92
2022-08-20T12:28:45.023Z,23.57
2022-08-20T12:31:13.558Z,23.39
2022-08-20T12:33:41.750Z,23.28
2022-08-20T12:36:11.038Z,23.05
2022-08-20T12:38:40.817Z,23.04
2022-08-20T12:41:09.043Z,23.18
2022-08-20T12:43:37.218Z,23.24
2022-08-20T12:46:05.481Z,23.14
2022-08-20T12:48:33.777Z,23.17
2022-08-20T12:51:01.885Z,23.25
2022-08-20T12:53:30.202Z,23.24
2022-08-20T12:56:02.576Z,23.44
2022-08-20T12:58:30.798Z,23.53
2022-08-20T13:00:59.014Z,23.14
2022-08-20T13:03:32.253Z,23.22
2022-08-20T13:06:02.278Z,23.06
2022-08-20T13:08:30.489Z,23.22
2022-08-20T13:11:02.833Z,22.83
2022-08-20T13:13:31.078Z,22.70
2022-08-20T13:15:59.254Z,22.93
2022-08-20T13:18:28.152Z,22.75
2022-08-20T13:20:56.357Z,22.87
2022-08-20T13:23:24.463Z,22.75
2022-08-20T13:25:52.829Z,22.76
2022-08-20T13:28:22.350Z,22.81
2022-08-20T13:30:50.649Z,22.85
2022-08-20T13:33:20.093Z,22.72
2022-08-20T13:35:50.752Z,22.84
2022-08-20T13:38:18.972Z,22.69
2022-08-20T13:40:48.953Z,22.83
2022-08-20T13:43:18.742Z,22.76
2022-08-20T13:45:48.539Z,22.82
2022-08-20T13:48:16.796Z,22.86
2022-08-20T13:50:47.378Z,22.82
2022-08-20T13:53:16.654Z,22.81
2022-08-20T13:55:45.577Z,22.80
2022-08-20T13:58:13.812Z,22.83
2022-08-20T14:00:42.024Z,23.21
2022-08-20T14:03:12.153Z,22.92
2022-08-20T14:05:42.406Z,22.74
2022-08-20T14:08:12.956Z,23.02
2022-08-20T14:10:42.579Z,22.79
2022-08-20T14:13:15.312Z,22.86
2022-08-20T14:15:44.244Z,22.75
2022-08-20T14:18:14.531Z,22.82
2022-08-20T14:20:45.804Z,22.60
2022-08-20T14:23:14.706Z,22.54
2022-08-20T14:25:43.102Z,22.47
2022-08-20T14:28:12.700Z,22.55
2022-08-20T14:30:41.365Z,22.64
2022-08-20T14:33:09.613Z,22.72
2022-08-20T14:35:39.487Z,22.67
2022-08-20T14:38:08.464Z,22.76
2022-08-20T14:40:37.211Z,22.84
2022-08-20T14:43:05.347Z,22.88
2022-08-20T14:45:33.670Z,22.72
2022-08-20T14:48:02.020Z,22.76
2022-08-20T14:50:32.828Z,22.68
2022-08-20T14:53:02.824Z,22.73
2022-08-20T14:55:33.330Z,22.89
2022-08-20T14:58:01.539Z,22.78
2022-08-20T15:00:33.921Z,22.86
2022-08-20T15:03:02.078Z,22.67
2022-08-20T15:05:30.471Z,22.80
2022-08-20T15:07:59.491Z,22.82
2022-08-20T15:10:32.540Z,22.47
2022-08-20T15:13:01.301Z,22.55
2022-08-20T15:15:30.044Z,22.59
2022-08-20T15:18:01.031Z,22.36
2022-08-20T15:20:31.849Z,22.34
2022-08-20T15:23:00.266Z,22.47
2022-08-20T15:25:36.573Z,22.27
2022-08-20T15:28:06.771Z,22.43
2022-08-20T15:30:35.325Z,22.36
2022-08-20T15:33:03.625Z,22.39
2022-08-20T15:35:31.913Z,22.55
2022-08-20T15:38:00.697Z,22.30
2022-08-20T15:40:31.899Z,22.30
2022-08-20T15:43:01.799Z,22.17
2022-08-20T15:45:30.403Z,22.13
2022-08-20T15:48:04.797Z,22.23
2022-08-20T15:50:49.561Z,22.23
2022-08-20T15:53:23.181Z,22.03
2022-08-20T15:55:59.209Z,22.14
2022-08-20T15:58:34.311Z,22.00
2022-08-20T16:01:24.217Z,22.06
2022-08-20T16:04:20.139Z,22.25
2022-08-20T16:06:48.831Z,22.09
2022-08-20T16:09:32.955Z,21.94
2022-08-20T16:12:09.076Z,22.38
2022-08-20T16:14:40.030Z,22.33
2022-08-20T16:17:12.665Z,21.93
2022-08-20T16:19:49.732Z,22.45
2022-08-20T16:22:19.978Z,22.25
2022-08-20T16:24:52.608Z,22.26
2022-08-20T16:27:33.546Z,22.61
2022-08-20T16:30:05.788Z,22.62
2022-08-20T16:32:53.926Z,22.31
2022-08-20T16:35:30.326Z,22.45
2022-08-20T16:38:09.243Z,22.21
2022-08-20T16:40:44.203Z,21.93
2022-08-20T16:43:27.945Z,22.31
2022-08-20T16:46:02.810Z,22.30
2022-08-20T16:48:35.572Z,22.11
2022-08-20T16:51:09.751Z,22.19
2022-08-20T16:53:40.491Z,22.17
2022-08-20T16:56:11.154Z,22.30
2022-08-20T16:58:45.687Z,22.37
2022-08-20T17:01:15.903Z,22.27
2022-08-20T17:03:50.692Z,22.18
2022-08-20T17:06:26.262Z,22.48
2022-08-20T17:08:55.101Z,22.16
2022-08-20T17:11:26.504Z,22.09
2022-08-20T17:14:07.287Z,22.09
2022-08-20T17:16:37.115Z,22.27
2022-08-20T17:19:11.451Z,22.25
2022-08-20T17:21:40.065Z,22.32
2022-08-20T17:24:16.980Z,22.06
2022-08-20T17:26:47.074Z,22.19
2022-08-20T17:29:19.218Z,22.01
2022-08-20T17:31:50.409Z,22.06
2022-08-20T17:34:22.408Z,21.91
2022-08-20T17:36:56.269Z,22.25
2022-08-20T17:39:26.395Z,22.17
2022-08-20T17:41:58.462Z,22.07
2022-08-20T17:44:30.264Z,22.12
2022-08-20T17:47:00.307Z,22.23
2022-08-20T17:49:35.733Z,22.08
2022-08-20T17:52:07.608Z,22.37
2022-08-20T17:54:38.311Z,22.39
2022-08-20T17:57:09.107Z,22.19
2022-08-20T17:59:59.702Z,22.12
2022-08-20T18:02:29.642Z,22.19
2022-08-20T18:04:58.016Z,22.19
2022-08-20T18:07:28.469Z,22.22
2022-08-20T18:09:59.840Z,22.26
2022-08-20T18:12:34.979Z,22.22
2022-08-20T18:15:09.949Z,22.02
2022-08-20T18:18:03.235Z,21.96
2022-08-20T18:20:47.872Z,22.03
2022-08-20T18:23:19.534Z,22.16
2022-08-20T18:25:51.705Z,22.10
2022-08-20T18:28:23.206Z,22.06
2022-08-20T18:30:57.155Z,21.95
2022-08-20T18:33:30.490Z,22.19
2022-08-20T18:36:14.503Z,22.01
2022-08-20T18:38:43.582Z,21.90
2022-08-20T18:41:27.680Z,21.98
2022-08-20T18:44:06.572Z,22.01
2022-08-20T18:46:36.522Z,21.90
2022-08-20T18:49:07.170Z,21.64
2022-08-20T18:51:44.100Z,21.73
2022-08-20T18:54:23.745Z,21.93
2022-08-20T18:57:04.764Z,21.68
2022-08-20T18:59:35.047Z,21.68
2022-08-20T19:02:15.737Z,21.63
2022-08-20T19:04:44.834Z,21.83
2022-08-20T19:07:20.696Z,21.91
2022-08-20T19:10:27.778Z,21.83
2022-08-20T19:13:20.215Z,21.94
2022-08-20T19:15:51.571Z,21.79
2022-08-20T19:18:25.490Z,21.83
2022-08-20T19:20:57.462Z,21.87
2022-08-20T19:23:28.507Z,21.78
2022-08-20T19:25:58.963Z,21.81
2022-08-20T19:28:29.499Z,21.60
2022-08-20T19:31:10.528Z,21.63
2022-08-20T19:33:44.226Z,21.51
2022-08-20T19:36:14.764Z,21.46
2022-08-20T19:38:47.022Z,21.45
2022-08-20T19:57:28.773Z,21.17
2022-08-20T20:20:15.954Z,21.04
2022-08-20T20:22:50.907Z,20.98
2022-08-20T20:25:21.323Z,21.26
2022-08-20T20:27:50.761Z,21.31
2022-08-20T20:30:24.073Z,21.04
2022-08-20T20:32:52.363Z,21.17
2022-08-20T20:35:29.840Z,21.07
2022-08-20T20:38:02.126Z,21.01
2022-08-20T20:40:33.327Z,20.92
2022-08-20T20:43:06.431Z,21.05
2022-08-20T20:45:37.329Z,21.19
2022-08-20T20:48:18.590Z,21.01
2022-08-20T20:50:49.064Z,20.83
2022-08-20T20:53:32.305Z,20.53
2022-08-20T20:56:31.740Z,20.62
2022-08-20T20:59:05.302Z,20.57
2022-08-20T21:01:46.193Z,20.33
2022-08-20T21:04:16.742Z,20.61
2022-08-20T21:06:46.390Z,20.37
2022-08-20T21:09:14.663Z,20.48
2022-08-20T21:11:42.919Z,20.33
2022-08-20T21:14:11.102Z,20.45
2022-08-20T21:16:39.192Z,20.71
2022-08-20T21:19:09.972Z,20.35
2022-08-20T21:21:38.292Z,20.37
2022-08-20T21:24:08.549Z,20.10
2022-08-20T21:26:37.405Z,20.21
2022-08-20T21:29:06.008Z,20.16
2022-08-20T21:31:37.340Z,20.22
2022-08-20T21:34:06.739Z,20.23
2022-08-20T21:36:34.892Z,19.97
2022-08-20T21:39:03.017Z,19.71
2022-08-20T21:41:32.957Z,19.82
2022-08-20T21:44:02.400Z,19.77
2022-08-20T21:46:32.517Z,19.95
2022-08-20T21:49:00.574Z,19.86
2022-08-20T21:51:30.749Z,19.53
2022-08-20T21:54:01.193Z,19.63
2022-08-20T21:56:29.481Z,19.66
2022-08-20T21:59:04.015Z,19.48
2022-08-20T22:01:32.707Z,19.62
2022-08-20T22:04:00.941Z,19.51
2022-08-20T22:06:29.292Z,19.55
2022-08-20T22:08:57.399Z,19.40
2022-08-20T22:11:25.574Z,19.62
2022-08-20T22:13:54.266Z,19.49
2022-08-20T22:16:24.349Z,19.50
2022-08-20T22:18:53.630Z,19.54
2022-08-20T22:21:24.376Z,19.62
2022-08-20T22:23:53.966Z,19.41
2022-08-20T22:26:22.717Z,19.35
2022-08-20T22:28:55.688Z,19.46
2022-08-20T22:31:27.923Z,19.48
2022-08-20T22:33:56.546Z,19.44
2022-08-20T22:36:25.182Z,19.32
2022-08-20T22:38:55.005Z,19.42
2022-08-20T22:41:24.009Z,19.47
2022-08-20T22:43:56.721Z,19.42
2022-08-20T22:46:28.352Z,19.38
2022-08-20T22:48:57.362Z,19.37
2022-08-20T22:51:30.170Z,19.44
2022-08-20T22:53:59.256Z,19.40
2022-08-20T22:56:27.408Z,19.53
2022-08-20T22:58:59.573Z,19.49
2022-08-20T23:01:29.472Z,19.50
2022-08-20T23:03:58.801Z,19.55
2022-08-20T23:06:27.920Z,19.45
2022-08-20T23:08:56.279Z,19.81
2022-08-20T23:11:24.447Z,19.59
2022-08-20T23:13:52.616Z,19.66
2022-08-20T23:16:20.754Z,19.71
2022-08-20T23:18:50.254Z,19.60
2022-08-20T23:21:18.861Z,19.51
2022-08-20T23:23:47.052Z,19.47
2022-08-20T23:26:18.868Z,19.54
2022-08-20T23:28:47.018Z,19.31
2022-08-20T23:31:17.860Z,19.37
2022-08-20T23:33:45.963Z,19.35
2022-08-20T23:36:17.032Z,19.40
2022-08-20T23:38:45.178Z,19.25
2022-08-20T23:41:13.382Z,19.25
2022-08-20T23:44:01.482Z,19.40
2022-08-20T23:46:31.050Z,19.21
2022-08-20T23:48:59.100Z,19.20
2022-08-20T23:51:28.688Z,19.48
2022-08-20T23:53:57.014Z,19.28
2022-08-20T23:56:25.196Z,19.14
2022-08-20T23:58:56.051Z,19.15
